sensor_id;sensor_type;location;lat;lon;timestamp;pressure;altitude;pressure_sealevel;temperature;humidity
250;BME280;109;19.806;-70.704;2023-12-20T00:01:58;101084.16;;;24.93;50.49
250;BME280;109;19.806;-70.704;2023-12-20T00:04:24;101091.59;;;25.02;49.83
250;BME280;109;19.806;-70.704;2023-12-20T00:06:51;101093.44;;;25.02;50.12
250;BME280;109;19.806;-70.704;2023-12-20T00:09:18;101093.75;;;24.97;50.22
250;BME280;109;19.806;-70.704;2023-12-20T00:11:50;101099.69;;;25.02;49.66
250;BME280;109;19.806;-70.704;2023-12-20T00:14:17;101113.19;;;25.02;50.08
250;BME280;109;19.806;-70.704;2023-12-20T00:16:49;101106.72;;;24.92;49.96
250;BME280;109;19.806;-70.704;2023-12-20T00:19:16;101111.69;;;24.98;50.09
250;BME280;109;19.806;-70.704;2023-12-20T00:21:48;101107.00;;;25.13;49.54
250;BME280;109;19.806;-70.704;2023-12-20T00:24:15;101110.69;;;25.12;49.85
250;BME280;109;19.806;-70.704;2023-12-20T00:26:48;101115.97;;;25.13;49.65
250;BME280;109;19.806;-70.704;2023-12-20T00:29:15;101110.38;;;25.04;50.03
250;BME280;109;19.806;-70.704;2023-12-20T00:31:47;101111.66;;;25.11;50.15
250;BME280;109;19.806;-70.704;2023-12-20T00:34:14;101109.72;;;25.13;49.58
250;BME280;109;19.806;-70.704;2023-12-20T00:36:46;101113.50;;;25.23;49.66
250;BME280;109;19.806;-70.704;2023-12-20T00:39:13;101115.88;;;25.28;49.79
250;BME280;109;19.806;-70.704;2023-12-20T00:41:53;101112.31;;;25.27;49.75
250;BME280;109;19.806;-70.704;2023-12-20T00:44:33;101112.41;;;25.13;50.12
250;BME280;109;19.806;-70.704;2023-12-20T00:47:00;101111.34;;;25.15;49.86
250;BME280;109;19.806;-70.704;2023-12-20T00:49:33;101111.66;;;25.11;49.63
250;BME280;109;19.806;-70.704;2023-12-20T00:52:00;101117.38;;;25.19;49.45
250;BME280;109;19.806;-70.704;2023-12-20T00:54:33;101117.84;;;25.00;49.67
250;BME280;109;19.806;-70.704;2023-12-20T00:57:00;101122.06;;;25.04;49.58
250;BME280;109;19.806;-70.704;2023-12-20T00:59:32;101130.16;;;25.04;49.31
250;BME280;109;19.806;-70.704;2023-12-20T01:01:59;101143.75;;;25.03;49.66
250;BME280;109;19.806;-70.704;2023-12-20T01:04:31;101140.75;;;25.07;49.63
250;BME280;109;19.806;-70.704;2023-12-20T01:06:58;101131.31;;;25.13;49.20
250;BME280;109;19.806;-70.704;2023-12-20T01:09:32;101126.34;;;25.20;49.47
250;BME280;109;19.806;-70.704;2023-12-20T01:11:58;101136.19;;;25.08;49.29
250;BME280;109;19.806;-70.704;2023-12-20T01:14:31;101135.09;;;25.10;49.50
250;BME280;109;19.806;-70.704;2023-12-20T01:16:58;101132.66;;;24.95;49.55
250;BME280;109;19.806;-70.704;2023-12-20T01:19:30;101136.22;;;24.95;49.64
250;BME280;109;19.806;-70.704;2023-12-20T01:21:57;101136.22;;;24.95;49.85
250;BME280;109;19.806;-70.704;2023-12-20T01:24:29;101134.91;;;24.75;49.97
250;BME280;109;19.806;-70.704;2023-12-20T01:26:56;101124.00;;;24.90;49.84
250;BME280;109;19.806;-70.704;2023-12-20T01:29:28;101129.59;;;24.99;50.05
250;BME280;109;19.806;-70.704;2023-12-20T01:31:55;101128.53;;;25.02;50.11
250;BME280;109;19.806;-70.704;2023-12-20T01:34:27;101137.28;;;24.80;49.92
250;BME280;109;19.806;-70.704;2023-12-20T01:36:54;101142.47;;;24.83;50.30
250;BME280;109;19.806;-70.704;2023-12-20T01:39:34;101145.50;;;24.91;50.13
250;BME280;109;19.806;-70.704;2023-12-20T01:42:07;101142.69;;;24.93;49.69
250;BME280;109;19.806;-70.704;2023-12-20T01:44:54;101163.06;;;24.84;49.81
250;BME280;109;19.806;-70.704;2023-12-20T01:47:28;101164.91;;;24.84;49.73
250;BME280;109;19.806;-70.704;2023-12-20T01:49:54;101161.78;;;24.90;50.10
250;BME280;109;19.806;-70.704;2023-12-20T01:52:29;101170.97;;;24.87;49.55
250;BME280;109;19.806;-70.704;2023-12-20T01:54:57;101175.41;;;24.88;49.78
250;BME280;109;19.806;-70.704;2023-12-20T01:57:35;101170.09;;;24.87;50.00
250;BME280;109;19.806;-70.704;2023-12-20T02:00:01;101169.22;;;24.86;49.65
250;BME280;109;19.806;-70.704;2023-12-20T02:02:37;101168.25;;;24.87;50.17
250;BME280;109;19.806;-70.704;2023-12-20T02:05:08;101177.44;;;24.97;50.04
250;BME280;109;19.806;-70.704;2023-12-20T02:07:42;101180.91;;;24.99;49.99
250;BME280;109;19.806;-70.704;2023-12-20T02:10:08;101183.19;;;24.93;50.18
250;BME280;109;19.806;-70.704;2023-12-20T02:12:42;101171.31;;;24.83;49.75
250;BME280;109;19.806;-70.704;2023-12-20T02:15:08;101179.91;;;24.75;49.74
250;BME280;109;19.806;-70.704;2023-12-20T02:17:41;101192.91;;;24.83;50.26
250;BME280;109;19.806;-70.704;2023-12-20T02:20:08;101193.88;;;24.94;49.94
250;BME280;109;19.806;-70.704;2023-12-20T02:22:40;101192.16;;;24.93;50.02
250;BME280;109;19.806;-70.704;2023-12-20T02:25:07;101177.78;;;24.80;49.85
250;BME280;109;19.806;-70.704;2023-12-20T02:27:41;101195.75;;;24.67;50.36
250;BME280;109;19.806;-70.704;2023-12-20T02:30:09;101192.97;;;24.68;50.37
250;BME280;109;19.806;-70.704;2023-12-20T02:32:51;101194.56;;;24.71;50.15
250;BME280;109;19.806;-70.704;2023-12-20T02:35:24;101192.09;;;24.68;50.50
250;BME280;109;19.806;-70.704;2023-12-20T02:37:53;101210.59;;;24.87;50.18
250;BME280;109;19.806;-70.704;2023-12-20T02:40:25;101211.66;;;24.84;50.05
250;BME280;109;19.806;-70.704;2023-12-20T02:43:12;101206.59;;;24.79;50.41
250;BME280;109;19.806;-70.704;2023-12-20T02:45:45;101215.41;;;24.69;50.56
250;BME280;109;19.806;-70.704;2023-12-20T02:48:12;101210.94;;;24.95;50.05
250;BME280;109;19.806;-70.704;2023-12-20T02:50:46;101203.34;;;25.00;49.85
250;BME280;109;19.806;-70.704;2023-12-20T02:53:13;101216.44;;;24.93;50.03
250;BME280;109;19.806;-70.704;2023-12-20T02:55:46;101207.47;;;24.93;50.41
250;BME280;109;19.806;-70.704;2023-12-20T02:58:13;101221.50;;;24.85;50.00
250;BME280;109;19.806;-70.704;2023-12-20T03:00:46;101206.81;;;24.76;50.47
250;BME280;109;19.806;-70.704;2023-12-20T03:03:12;101201.00;;;24.83;50.29
250;BME280;109;19.806;-70.704;2023-12-20T03:05:45;101202.50;;;24.87;49.98
250;BME280;109;19.806;-70.704;2023-12-20T03:08:12;101197.00;;;24.88;50.20
250;BME280;109;19.806;-70.704;2023-12-20T03:10:45;101192.78;;;24.97;49.92
250;BME280;109;19.806;-70.704;2023-12-20T03:13:12;101190.94;;;24.97;49.83
250;BME280;109;19.806;-70.704;2023-12-20T03:15:45;101187.06;;;25.01;50.00
250;BME280;109;19.806;-70.704;2023-12-20T03:18:11;101187.91;;;24.89;50.09
250;BME280;109;19.806;-70.704;2023-12-20T03:20:45;101174.00;;;24.83;50.61
250;BME280;109;19.806;-70.704;2023-12-20T03:23:16;101173.88;;;24.84;50.21
250;BME280;109;19.806;-70.704;2023-12-20T03:25:49;101176.38;;;24.87;49.93
250;BME280;109;19.806;-70.704;2023-12-20T03:28:22;101174.88;;;24.83;50.68
250;BME280;109;19.806;-70.704;2023-12-20T03:30:57;101174.28;;;24.65;50.38
250;BME280;109;19.806;-70.704;2023-12-20T03:33:24;101172.00;;;24.72;50.62
250;BME280;109;19.806;-70.704;2023-12-20T03:35:56;101172.59;;;24.77;50.36
250;BME280;109;19.806;-70.704;2023-12-20T03:38:23;101178.09;;;24.75;50.64
250;BME280;109;19.806;-70.704;2023-12-20T03:40:57;101179.13;;;24.73;50.93
250;BME280;109;19.806;-70.704;2023-12-20T03:43:43;101184.84;;;24.68;50.71
250;BME280;109;19.806;-70.704;2023-12-20T03:46:17;101176.88;;;24.67;50.86
250;BME280;109;19.806;-70.704;2023-12-20T03:48:43;101170.66;;;24.79;50.39
250;BME280;109;19.806;-70.704;2023-12-20T03:51:16;101180.22;;;24.70;50.62
250;BME280;109;19.806;-70.704;2023-12-20T03:53:43;101190.34;;;24.67;50.69
250;BME280;109;19.806;-70.704;2023-12-20T03:56:15;101192.41;;;24.63;51.05
250;BME280;109;19.806;-70.704;2023-12-20T03:58:42;101190.66;;;24.62;50.56
250;BME280;109;19.806;-70.704;2023-12-20T04:01:14;101195.53;;;24.57;50.54
250;BME280;109;19.806;-70.704;2023-12-20T04:03:41;101193.53;;;24.46;51.09
250;BME280;109;19.806;-70.704;2023-12-20T04:06:18;101188.91;;;24.49;51.21
250;BME280;109;19.806;-70.704;2023-12-20T04:08:50;101188.59;;;24.53;50.87
250;BME280;109;19.806;-70.704;2023-12-20T04:11:18;101181.91;;;24.59;50.91
250;BME280;109;19.806;-70.704;2023-12-20T04:13:51;101195.28;;;24.47;51.10
250;BME280;109;19.806;-70.704;2023-12-20T04:16:17;101180.31;;;24.56;51.01
250;BME280;109;19.806;-70.704;2023-12-20T04:18:49;101186.22;;;24.61;51.00
250;BME280;109;19.806;-70.704;2023-12-20T04:21:16;101181.72;;;24.62;50.88
250;BME280;109;19.806;-70.704;2023-12-20T04:23:48;101182.16;;;24.56;50.85
250;BME280;109;19.806;-70.704;2023-12-20T04:26:22;101179.84;;;24.50;51.17
250;BME280;109;19.806;-70.704;2023-12-20T04:28:56;101179.94;;;24.48;50.77
250;BME280;109;19.806;-70.704;2023-12-20T04:31:22;101170.03;;;24.49;50.99
250;BME280;109;19.806;-70.704;2023-12-20T04:33:55;101176.94;;;24.53;50.68
250;BME280;109;19.806;-70.704;2023-12-20T04:36:21;101174.34;;;24.51;51.12
250;BME280;109;19.806;-70.704;2023-12-20T04:38:53;101172.06;;;24.45;51.01
250;BME280;109;19.806;-70.704;2023-12-20T04:41:20;101168.94;;;24.38;51.10
250;BME280;109;19.806;-70.704;2023-12-20T04:43:53;101172.19;;;24.43;50.97
250;BME280;109;19.806;-70.704;2023-12-20T04:46:32;101178.97;;;24.49;50.70
250;BME280;109;19.806;-70.704;2023-12-20T04:49:01;101173.94;;;24.57;50.57
250;BME280;109;19.806;-70.704;2023-12-20T04:51:35;101173.50;;;24.63;50.98
250;BME280;109;19.806;-70.704;2023-12-20T04:54:02;101176.41;;;24.60;50.55
250;BME280;109;19.806;-70.704;2023-12-20T04:56:34;101166.47;;;24.61;50.35
250;BME280;109;19.806;-70.704;2023-12-20T04:59:01;101168.66;;;24.56;50.48
250;BME280;109;19.806;-70.704;2023-12-20T05:01:34;101169.81;;;24.52;50.85
250;BME280;109;19.806;-70.704;2023-12-20T05:04:00;101171.44;;;24.41;50.77
250;BME280;109;19.806;-70.704;2023-12-20T05:06:32;101159.13;;;24.50;50.52
250;BME280;109;19.806;-70.704;2023-12-20T05:08:59;101170.03;;;24.49;50.75
250;BME280;109;19.806;-70.704;2023-12-20T05:11:31;101163.09;;;24.44;50.67
250;BME280;109;19.806;-70.704;2023-12-20T05:13:58;101154.19;;;24.44;50.78
250;BME280;109;19.806;-70.704;2023-12-20T05:16:30;101147.69;;;24.59;50.87
250;BME280;109;19.806;-70.704;2023-12-20T05:18:57;101148.47;;;24.61;50.98
250;BME280;109;19.806;-70.704;2023-12-20T05:21:38;101154.28;;;24.42;51.18
250;BME280;109;19.806;-70.704;2023-12-20T05:24:11;101147.94;;;24.56;50.62
250;BME280;109;19.806;-70.704;2023-12-20T05:26:38;101144.56;;;24.53;51.38
250;BME280;109;19.806;-70.704;2023-12-20T05:29:10;101141.88;;;24.53;51.26
250;BME280;109;19.806;-70.704;2023-12-20T05:31:37;101134.63;;;24.40;51.31
250;BME280;109;19.806;-70.704;2023-12-20T05:34:09;101132.25;;;24.49;51.41
250;BME280;109;19.806;-70.704;2023-12-20T05:36:36;101127.94;;;24.46;51.18
250;BME280;109;19.806;-70.704;2023-12-20T05:39:10;101125.88;;;24.37;51.22
250;BME280;109;19.806;-70.704;2023-12-20T05:41:36;101115.56;;;24.43;50.82
250;BME280;109;19.806;-70.704;2023-12-20T05:44:09;101110.88;;;24.45;51.35
250;BME280;109;19.806;-70.704;2023-12-20T05:46:48;101120.28;;;24.40;51.25
250;BME280;109;19.806;-70.704;2023-12-20T05:49:15;101112.09;;;24.41;51.20
250;BME280;109;19.806;-70.704;2023-12-20T05:51:48;101112.63;;;24.46;51.31
250;BME280;109;19.806;-70.704;2023-12-20T05:54:14;101117.16;;;24.46;51.25
250;BME280;109;19.806;-70.704;2023-12-20T05:56:49;101115.19;;;24.35;51.12
250;BME280;109;19.806;-70.704;2023-12-20T05:59:16;101108.97;;;24.73;50.36
250;BME280;109;19.806;-70.704;2023-12-20T06:01:57;101095.28;;;24.76;50.31
250;BME280;109;19.806;-70.704;2023-12-20T06:04:30;101092.78;;;24.86;50.15
250;BME280;109;19.806;-70.704;2023-12-20T06:06:56;101091.50;;;24.78;50.07
250;BME280;109;19.806;-70.704;2023-12-20T06:09:29;101086.50;;;24.72;49.96
250;BME280;109;19.806;-70.704;2023-12-20T06:11:55;101092.59;;;24.76;50.30
250;BME280;109;19.806;-70.704;2023-12-20T06:14:29;101086.63;;;24.84;50.02
250;BME280;109;19.806;-70.704;2023-12-20T06:16:57;101082.53;;;25.03;49.57
250;BME280;109;19.806;-70.704;2023-12-20T06:19:30;101080.06;;;24.88;49.71
250;BME280;109;19.806;-70.704;2023-12-20T06:21:56;101079.63;;;24.94;49.50
250;BME280;109;19.806;-70.704;2023-12-20T06:24:29;101081.88;;;24.87;49.62
250;BME280;109;19.806;-70.704;2023-12-20T06:26:55;101086.44;;;24.87;49.75
250;BME280;109;19.806;-70.704;2023-12-20T06:29:29;101088.69;;;24.67;50.21
250;BME280;109;19.806;-70.704;2023-12-20T06:31:56;101075.28;;;24.66;49.94
250;BME280;109;19.806;-70.704;2023-12-20T06:34:30;101081.34;;;24.69;50.56
250;BME280;109;19.806;-70.704;2023-12-20T06:36:56;101076.59;;;24.60;50.07
250;BME280;109;19.806;-70.704;2023-12-20T06:39:28;101080.59;;;24.67;50.34
250;BME280;109;19.806;-70.704;2023-12-20T06:41:56;101074.22;;;24.68;50.63
250;BME280;109;19.806;-70.704;2023-12-20T06:44:30;101065.16;;;24.57;50.18
250;BME280;109;19.806;-70.704;2023-12-20T06:47:09;101070.22;;;24.61;50.29
250;BME280;109;19.806;-70.704;2023-12-20T06:49:36;101077.03;;;24.54;50.27
250;BME280;109;19.806;-70.704;2023-12-20T06:52:09;101084.06;;;24.57;50.55
250;BME280;109;19.806;-70.704;2023-12-20T06:54:42;101084.16;;;24.55;50.25
250;BME280;109;19.806;-70.704;2023-12-20T06:57:15;101078.88;;;24.54;50.16
250;BME280;109;19.806;-70.704;2023-12-20T06:59:41;101068.16;;;24.39;50.51
250;BME280;109;19.806;-70.704;2023-12-20T07:02:14;101069.69;;;24.31;50.58
250;BME280;109;19.806;-70.704;2023-12-20T07:04:43;101063.63;;;24.27;51.06
250;BME280;109;19.806;-70.704;2023-12-20T07:07:16;101059.09;;;24.28;51.21
250;BME280;109;19.806;-70.704;2023-12-20T07:09:42;101059.69;;;24.19;50.89
250;BME280;109;19.806;-70.704;2023-12-20T07:12:15;101060.13;;;24.25;51.03
250;BME280;109;19.806;-70.704;2023-12-20T07:14:41;101060.13;;;24.13;51.04
250;BME280;109;19.806;-70.704;2023-12-20T07:17:14;101065.06;;;24.19;51.06
250;BME280;109;19.806;-70.704;2023-12-20T07:19:41;101057.66;;;24.22;50.70
250;BME280;109;19.806;-70.704;2023-12-20T07:22:15;101061.09;;;24.24;50.70
250;BME280;109;19.806;-70.704;2023-12-20T07:24:41;101060.78;;;24.16;50.98
250;BME280;109;19.806;-70.704;2023-12-20T07:27:14;101067.03;;;24.17;50.98
250;BME280;109;19.806;-70.704;2023-12-20T07:29:40;101065.63;;;24.24;50.64
250;BME280;109;19.806;-70.704;2023-12-20T07:32:13;101066.19;;;24.16;50.91
250;BME280;109;19.806;-70.704;2023-12-20T07:34:39;101064.25;;;24.18;50.69
250;BME280;109;19.806;-70.704;2023-12-20T07:37:13;101059.81;;;24.17;50.75
250;BME280;109;19.806;-70.704;2023-12-20T07:39:40;101055.38;;;24.16;50.96
250;BME280;109;19.806;-70.704;2023-12-20T07:42:13;101054.19;;;24.20;50.63
250;BME280;109;19.806;-70.704;2023-12-20T07:45:03;101054.50;;;24.03;50.78
250;BME280;109;19.806;-70.704;2023-12-20T07:47:37;101050.09;;;24.15;51.00
250;BME280;109;19.806;-70.704;2023-12-20T07:50:03;101056.97;;;24.19;50.70
250;BME280;109;19.806;-70.704;2023-12-20T07:52:37;101058.09;;;24.16;50.85
250;BME280;109;19.806;-70.704;2023-12-20T07:55:03;101058.50;;;24.23;50.73
250;BME280;109;19.806;-70.704;2023-12-20T07:57:37;101062.75;;;24.27;50.75
250;BME280;109;19.806;-70.704;2023-12-20T08:00:04;101067.03;;;24.17;50.61
250;BME280;109;19.806;-70.704;2023-12-20T08:02:38;101059.06;;;24.15;50.74
250;BME280;109;19.806;-70.704;2023-12-20T08:05:04;101071.56;;;24.16;50.86
250;BME280;109;19.806;-70.704;2023-12-20T08:07:38;101060.94;;;24.27;50.68
250;BME280;109;19.806;-70.704;2023-12-20T08:10:05;101053.00;;;24.24;50.74
250;BME280;109;19.806;-70.704;2023-12-20T08:12:38;101054.84;;;24.24;50.56
250;BME280;109;19.806;-70.704;2023-12-20T08:15:06;101058.41;;;24.24;50.58
250;BME280;109;19.806;-70.704;2023-12-20T08:17:42;101055.81;;;24.23;50.66
250;BME280;109;19.806;-70.704;2023-12-20T08:20:08;101061.91;;;24.26;50.55
250;BME280;109;19.806;-70.704;2023-12-20T08:22:42;101054.75;;;24.25;50.77
250;BME280;109;19.806;-70.704;2023-12-20T08:25:08;101052.94;;;24.26;50.80
250;BME280;109;19.806;-70.704;2023-12-20T08:27:42;101054.66;;;24.27;50.25
250;BME280;109;19.806;-70.704;2023-12-20T08:30:09;101055.91;;;24.21;50.84
250;BME280;109;19.806;-70.704;2023-12-20T08:32:42;101055.53;;;24.27;50.66
250;BME280;109;19.806;-70.704;2023-12-20T08:35:08;101050.25;;;24.26;50.55
250;BME280;109;19.806;-70.704;2023-12-20T08:37:41;101055.66;;;24.38;50.61
250;BME280;109;19.806;-70.704;2023-12-20T08:40:07;101053.91;;;24.37;50.29
250;BME280;109;19.806;-70.704;2023-12-20T08:42:41;101053.91;;;24.37;50.00
250;BME280;109;19.806;-70.704;2023-12-20T08:45:28;101053.88;;;24.25;50.35
250;BME280;109;19.806;-70.704;2023-12-20T08:48:02;101061.94;;;24.12;50.92
250;BME280;109;19.806;-70.704;2023-12-20T08:50:29;101053.88;;;24.12;50.79
250;BME280;109;19.806;-70.704;2023-12-20T08:53:02;101050.41;;;24.10;50.81
250;BME280;109;19.806;-70.704;2023-12-20T08:55:28;101051.25;;;24.10;50.57
250;BME280;109;19.806;-70.704;2023-12-20T08:58:03;101058.50;;;24.10;50.73
250;BME280;109;19.806;-70.704;2023-12-20T09:00:32;101056.75;;;24.09;51.00
250;BME280;109;19.806;-70.704;2023-12-20T09:03:06;101057.53;;;24.11;50.67
250;BME280;109;19.806;-70.704;2023-12-20T09:05:32;101068.50;;;24.08;51.09
250;BME280;109;19.806;-70.704;2023-12-20T09:08:06;101064.22;;;24.05;51.12
250;BME280;109;19.806;-70.704;2023-12-20T09:10:33;101064.31;;;24.04;50.73
250;BME280;109;19.806;-70.704;2023-12-20T09:13:07;101064.53;;;24.14;50.77
250;BME280;109;19.806;-70.704;2023-12-20T09:15:34;101066.69;;;24.08;51.23
250;BME280;109;19.806;-70.704;2023-12-20T09:18:07;101061.53;;;24.05;51.24
250;BME280;109;19.806;-70.704;2023-12-20T09:20:34;101062.25;;;24.07;50.84
250;BME280;109;19.806;-70.704;2023-12-20T09:23:07;101058.50;;;24.10;51.03
250;BME280;109;19.806;-70.704;2023-12-20T09:25:34;101060.53;;;24.06;51.00
250;BME280;109;19.806;-70.704;2023-12-20T09:28:07;101062.50;;;24.04;50.79
250;BME280;109;19.806;-70.704;2023-12-20T09:30:40;101067.88;;;24.04;50.77
250;BME280;109;19.806;-70.704;2023-12-20T09:33:14;101070.25;;;24.09;50.63
250;BME280;109;19.806;-70.704;2023-12-20T09:35:42;101075.84;;;24.06;50.59
250;BME280;109;19.806;-70.704;2023-12-20T09:38:15;101077.38;;;24.10;50.52
250;BME280;109;19.806;-70.704;2023-12-20T09:40:43;101082.97;;;24.20;50.36
250;BME280;109;19.806;-70.704;2023-12-20T09:43:19;101079.84;;;24.13;50.35
250;BME280;109;19.806;-70.704;2023-12-20T09:46:00;101082.34;;;24.16;50.29
250;BME280;109;19.806;-70.704;2023-12-20T09:48:30;101072.00;;;24.23;50.12
250;BME280;109;19.806;-70.704;2023-12-20T09:51:04;101087.66;;;24.18;50.28
250;BME280;109;19.806;-70.704;2023-12-20T09:53:32;101083.31;;;24.15;50.47
250;BME280;109;19.806;-70.704;2023-12-20T09:56:07;101090.00;;;24.22;50.16
250;BME280;109;19.806;-70.704;2023-12-20T09:58:37;101095.06;;;24.14;50.33
250;BME280;109;19.806;-70.704;2023-12-20T10:01:11;101098.28;;;24.19;50.21
250;BME280;109;19.806;-70.704;2023-12-20T10:03:39;101109.72;;;24.10;50.41
250;BME280;109;19.806;-70.704;2023-12-20T10:06:14;101102.72;;;24.20;50.51
250;BME280;109;19.806;-70.704;2023-12-20T10:08:40;101108.94;;;24.08;50.75
250;BME280;109;19.806;-70.704;2023-12-20T10:11:14;101117.47;;;24.02;50.76
250;BME280;109;19.806;-70.704;2023-12-20T10:13:42;101116.75;;;24.13;50.75
250;BME280;109;19.806;-70.704;2023-12-20T10:16:17;101114.03;;;24.13;50.94
250;BME280;109;19.806;-70.704;2023-12-20T10:18:45;101125.50;;;24.16;50.54
250;BME280;109;19.806;-70.704;2023-12-20T10:21:18;101128.69;;;24.08;50.90
250;BME280;109;19.806;-70.704;2023-12-20T10:23:45;101120.47;;;23.97;51.48
250;BME280;109;19.806;-70.704;2023-12-20T10:26:27;101120.28;;;24.13;51.18
250;BME280;109;19.806;-70.704;2023-12-20T10:29:00;101129.13;;;24.02;51.22
250;BME280;109;19.806;-70.704;2023-12-20T10:31:33;101129.44;;;24.10;51.20
250;BME280;109;19.806;-70.704;2023-12-20T10:34:07;101126.34;;;24.17;50.95
250;BME280;109;19.806;-70.704;2023-12-20T10:36:33;101132.63;;;24.17;51.14
250;BME280;109;19.806;-70.704;2023-12-20T10:39:08;101142.06;;;24.10;51.31
250;BME280;109;19.806;-70.704;2023-12-20T10:41:44;101145.94;;;24.06;51.57
250;BME280;109;19.806;-70.704;2023-12-20T10:47:50;101149.19;;;24.11;51.86
250;BME280;109;19.806;-70.704;2023-12-20T10:50:23;101150.25;;;24.08;51.96
250;BME280;109;19.806;-70.704;2023-12-20T10:53:03;101157.63;;;24.19;51.77
250;BME280;109;19.806;-70.704;2023-12-20T10:55:30;101159.09;;;24.10;51.72
250;BME280;109;19.806;-70.704;2023-12-20T10:58:09;101168.69;;;24.02;52.32
250;BME280;109;19.806;-70.704;2023-12-20T11:00:43;101166.56;;;24.20;51.81
250;BME280;109;19.806;-70.704;2023-12-20T11:03:12;101170.13;;;24.20;51.83
250;BME280;109;19.806;-70.704;2023-12-20T11:05:53;101180.34;;;24.29;51.69
250;BME280;109;19.806;-70.704;2023-12-20T11:08:40;101177.22;;;24.35;51.39
250;BME280;109;19.806;-70.704;2023-12-20T11:14:08;101188.03;;;24.21;51.79
250;BME280;109;19.806;-70.704;2023-12-20T11:16:41;101177.84;;;24.26;51.73
250;BME280;109;19.806;-70.704;2023-12-20T11:19:07;101177.75;;;24.28;52.02
250;BME280;109;19.806;-70.704;2023-12-20T11:21:34;101175.59;;;24.33;52.08
250;BME280;109;19.806;-70.704;2023-12-20T11:24:02;101183.16;;;24.28;51.79
250;BME280;109;19.806;-70.704;2023-12-20T11:26:30;101181.16;;;24.17;51.77
250;BME280;109;19.806;-70.704;2023-12-20T11:29:34;101184.66;;;24.32;52.29
250;BME280;109;19.806;-70.704;2023-12-20T11:32:15;101202.13;;;24.26;52.05
250;BME280;109;19.806;-70.704;2023-12-20T11:34:48;101202.06;;;24.40;51.81
250;BME280;109;19.806;-70.704;2023-12-20T11:37:14;101197.66;;;24.52;51.70
250;BME280;109;19.806;-70.704;2023-12-20T11:39:42;101210.16;;;24.40;52.06
250;BME280;109;19.806;-70.704;2023-12-20T11:42:10;101220.03;;;24.27;51.78
250;BME280;109;19.806;-70.704;2023-12-20T11:44:38;101221.28;;;24.22;52.22
250;BME280;109;19.806;-70.704;2023-12-20T11:47:04;101229.75;;;24.30;51.78
250;BME280;109;19.806;-70.704;2023-12-20T11:49:31;101236.13;;;24.29;52.35
250;BME280;109;19.806;-70.704;2023-12-20T11:51:57;101249.38;;;24.32;51.28
250;BME280;109;19.806;-70.704;2023-12-20T11:54:24;101250.47;;;24.15;52.42
250;BME280;109;19.806;-70.704;2023-12-20T11:56:50;101249.09;;;24.22;52.25
250;BME280;109;19.806;-70.704;2023-12-20T11:59:16;101251.44;;;24.14;51.68
250;BME280;109;19.806;-70.704;2023-12-20T12:01:49;101256.34;;;24.07;52.18
250;BME280;109;19.806;-70.704;2023-12-20T12:04:21;101251.44;;;24.14;51.85
250;BME280;109;19.806;-70.704;2023-12-20T12:06:47;101259.53;;;24.14;51.97
250;BME280;109;19.806;-70.704;2023-12-20T12:09:14;101265.22;;;24.09;51.56
250;BME280;109;19.806;-70.704;2023-12-20T12:11:42;101260.06;;;23.92;51.77
250;BME280;109;19.806;-70.704;2023-12-20T12:14:09;101273.44;;;23.94;52.12
250;BME280;109;19.806;-70.704;2023-12-20T12:16:36;101283.72;;;24.01;51.57
250;BME280;109;19.806;-70.704;2023-12-20T12:19:02;101293.25;;;24.07;51.18
250;BME280;109;19.806;-70.704;2023-12-20T12:21:30;101297.28;;;24.14;51.09
250;BME280;109;19.806;-70.704;2023-12-20T12:24:23;101289.81;;;24.05;51.31
250;BME280;109;19.806;-70.704;2023-12-20T12:26:52;101290.34;;;24.10;51.33
250;BME280;109;19.806;-70.704;2023-12-20T12:29:19;101297.75;;;24.06;51.58
250;BME280;109;19.806;-70.704;2023-12-20T12:31:45;101311.16;;;24.08;51.79
250;BME280;109;19.806;-70.704;2023-12-20T12:34:11;101327.50;;;24.19;51.85
250;BME280;109;19.806;-70.704;2023-12-20T12:36:39;101337.91;;;24.11;51.38
250;BME280;109;19.806;-70.704;2023-12-20T12:39:06;101347.28;;;24.05;51.46
250;BME280;109;19.806;-70.704;2023-12-20T12:41:32;101345.31;;;24.07;51.66
250;BME280;109;19.806;-70.704;2023-12-20T12:43:59;101343.47;;;24.22;51.81
250;BME280;109;19.806;-70.704;2023-12-20T12:46:25;101330.97;;;24.35;51.76
250;BME280;109;19.806;-70.704;2023-12-20T12:48:52;101336.06;;;24.40;51.77
250;BME280;109;19.806;-70.704;2023-12-20T12:51:18;101343.09;;;24.42;51.37
250;BME280;109;19.806;-70.704;2023-12-20T12:53:45;101351.28;;;24.41;51.38
250;BME280;109;19.806;-70.704;2023-12-20T12:56:14;101350.53;;;24.39;51.40
250;BME280;109;19.806;-70.704;2023-12-20T12:58:41;101344.25;;;24.38;51.13
250;BME280;109;19.806;-70.704;2023-12-20T13:01:08;101349.66;;;24.38;50.75
250;BME280;109;19.806;-70.704;2023-12-20T13:03:35;101356.50;;;24.44;51.10
250;BME280;109;19.806;-70.704;2023-12-20T13:06:01;101363.88;;;24.55;51.12
250;BME280;109;19.806;-70.704;2023-12-20T13:08:29;101373.84;;;24.67;50.68
250;BME280;109;19.806;-70.704;2023-12-20T13:10:55;101372.91;;;24.68;51.11
250;BME280;109;19.806;-70.704;2023-12-20T13:13:24;101372.09;;;24.80;51.07
250;BME280;109;19.806;-70.704;2023-12-20T13:15:50;101380.97;;;24.82;50.57
250;BME280;109;19.806;-70.704;2023-12-20T13:18:23;101384.97;;;24.89;50.78
250;BME280;109;19.806;-70.704;2023-12-20T13:20:50;101380.91;;;24.96;50.65
250;BME280;109;19.806;-70.704;2023-12-20T13:23:16;101375.41;;;25.10;50.59
250;BME280;109;19.806;-70.704;2023-12-20T13:25:44;101384.03;;;25.30;50.40
250;BME280;109;19.806;-70.704;2023-12-20T13:28:11;101382.09;;;25.32;50.84
250;BME280;109;19.806;-70.704;2023-12-20T13:30:38;101377.47;;;25.34;50.49
250;BME280;109;19.806;-70.704;2023-12-20T13:33:06;101379.50;;;25.30;50.83
250;BME280;109;19.806;-70.704;2023-12-20T13:35:33;101385.34;;;25.37;50.46